sensor_id;sensor_type;location;lat;lon;timestamp;temperature;humidity
19164;DHT22;9714;51.208;4.242;2023-07-31T00:01:20;18.40;99.90
19164;DHT22;9714;51.208;4.242;2023-07-31T00:03:47;18.40;99.90
19164;DHT22;9714;51.208;4.242;2023-07-31T00:06:15;18.40;99.90
19164;DHT22;9714;51.208;4.242;2023-07-31T00:08:43;18.40;99.90
19164;DHT22;9714;51.208;4.242;2023-07-31T00:11:12;18.40;99.90
19164;DHT22;9714;51.208;4.242;2023-07-31T00:13:42;18.50;99.90
19164;DHT22;9714;51.208;4.242;2023-07-31T00:16:13;18.50;99.90
19164;DHT22;9714;51.208;4.242;2023-07-31T00:18:45;18.60;99.90
19164;DHT22;9714;51.208;4.242;2023-07-31T00:21:14;18.50;99.90
19164;DHT22;9714;51.208;4.242;2023-07-31T00:23:46;18.50;99.90
19164;DHT22;9714;51.208;4.242;2023-07-31T00:26:16;18.40;99.90
19164;DHT22;9714;51.208;4.242;2023-07-31T00:28:46;18.50;99.90
19164;DHT22;9714;51.208;4.242;2023-07-31T00:31:16;18.50;99.90
19164;DHT22;9714;51.208;4.242;2023-07-31T00:33:45;18.30;99.90
19164;DHT22;9714;51.208;4.242;2023-07-31T00:36:15;18.30;99.90
19164;DHT22;9714;51.208;4.242;2023-07-31T00:38:45;18.40;99.90
19164;DHT22;9714;51.208;4.242;2023-07-31T00:41:16;18.30;99.90
19164;DHT22;9714;51.208;4.242;2023-07-31T00:43:44;18.30;99.90
19164;DHT22;9714;51.208;4.242;2023-07-31T00:46:12;18.40;99.90
19164;DHT22;9714;51.208;4.242;2023-07-31T00:48:41;18.40;99.90
19164;DHT22;9714;51.208;4.242;2023-07-31T00:51:14;18.30;99.90
19164;DHT22;9714;51.208;4.242;2023-07-31T00:53:43;18.40;99.90
19164;DHT22;9714;51.208;4.242;2023-07-31T00:56:14;18.40;99.90
19164;DHT22;9714;51.208;4.242;2023-07-31T00:58:45;18.50;99.90
19164;DHT22;9714;51.208;4.242;2023-07-31T01:01:12;18.30;99.90
19164;DHT22;9714;51.208;4.242;2023-07-31T01:03:46;18.50;99.90
19164;DHT22;9714;51.208;4.242;2023-07-31T01:06:28;18.50;99.90
19164;DHT22;9714;51.208;4.242;2023-07-31T01:09:01;18.50;99.90
19164;DHT22;9714;51.208;4.242;2023-07-31T01:11:41;18.50;99.90
19164;DHT22;9714;51.208;4.242;2023-07-31T01:14:20;18.40;99.90
19164;DHT22;9714;51.208;4.242;2023-07-31T01:16:49;18.30;99.90
19164;DHT22;9714;51.208;4.242;2023-07-31T01:19:19;18.40;99.90
19164;DHT22;9714;51.208;4.242;2023-07-31T01:22:01;18.50;99.90
19164;DHT22;9714;51.208;4.242;2023-07-31T01:24:39;18.50;99.90
19164;DHT22;9714;51.208;4.242;2023-07-31T01:27:13;18.40;99.90
19164;DHT22;9714;51.208;4.242;2023-07-31T01:29:55;18.40;99.90
19164;DHT22;9714;51.208;4.242;2023-07-31T01:32:23;18.40;99.90
19164;DHT22;9714;51.208;4.242;2023-07-31T01:34:55;18.40;99.90
19164;DHT22;9714;51.208;4.242;2023-07-31T01:37:28;18.30;99.90
19164;DHT22;9714;51.208;4.242;2023-07-31T01:39:57;18.40;99.90
19164;DHT22;9714;51.208;4.242;2023-07-31T01:42:30;18.40;99.90
19164;DHT22;9714;51.208;4.242;2023-07-31T01:44:58;18.30;99.90
19164;DHT22;9714;51.208;4.242;2023-07-31T01:47:25;18.50;99.90
19164;DHT22;9714;51.208;4.242;2023-07-31T01:49:52;18.50;99.90
19164;DHT22;9714;51.208;4.242;2023-07-31T01:52:20;18.50;99.90
19164;DHT22;9714;51.208;4.242;2023-07-31T01:54:47;18.60;99.90
19164;DHT22;9714;51.208;4.242;2023-07-31T01:57:15;18.60;99.90
19164;DHT22;9714;51.208;4.242;2023-07-31T01:59:43;18.50;99.90
19164;DHT22;9714;51.208;4.242;2023-07-31T02:02:13;18.40;99.90
19164;DHT22;9714;51.208;4.242;2023-07-31T02:04:40;18.40;99.90
19164;DHT22;9714;51.208;4.242;2023-07-31T02:07:08;18.50;99.90
19164;DHT22;9714;51.208;4.242;2023-07-31T02:09:35;18.50;99.90
19164;DHT22;9714;51.208;4.242;2023-07-31T02:12:02;18.40;99.90
19164;DHT22;9714;51.208;4.242;2023-07-31T02:14:30;18.50;99.90
19164;DHT22;9714;51.208;4.242;2023-07-31T02:16:59;18.40;99.90
19164;DHT22;9714;51.208;4.242;2023-07-31T02:19:26;18.60;99.90
19164;DHT22;9714;51.208;4.242;2023-07-31T02:21:55;18.60;99.90
19164;DHT22;9714;51.208;4.242;2023-07-31T02:24:23;18.50;99.90
19164;DHT22;9714;51.208;4.242;2023-07-31T02:26:50;18.60;99.90
19164;DHT22;9714;51.208;4.242;2023-07-31T02:29:17;18.50;99.90
19164;DHT22;9714;51.208;4.242;2023-07-31T02:31:45;18.50;99.90
19164;DHT22;9714;51.208;4.242;2023-07-31T02:34:14;18.40;99.90
19164;DHT22;9714;51.208;4.242;2023-07-31T02:36:44;18.50;99.90
19164;DHT22;9714;51.208;4.242;2023-07-31T02:39:11;18.30;99.90
19164;DHT22;9714;51.208;4.242;2023-07-31T02:41:38;18.50;99.90
19164;DHT22;9714;51.208;4.242;2023-07-31T02:44:07;18.50;99.90
19164;DHT22;9714;51.208;4.242;2023-07-31T02:46:39;18.50;99.90
19164;DHT22;9714;51.208;4.242;2023-07-31T02:49:06;18.60;99.90
19164;DHT22;9714;51.208;4.242;2023-07-31T02:51:35;18.50;99.90
19164;DHT22;9714;51.208;4.242;2023-07-31T02:54:03;18.60;99.90
19164;DHT22;9714;51.208;4.242;2023-07-31T02:56:34;18.50;99.90
19164;DHT22;9714;51.208;4.242;2023-07-31T02:59:01;18.40;99.90
19164;DHT22;9714;51.208;4.242;2023-07-31T03:01:28;18.60;99.90
19164;DHT22;9714;51.208;4.242;2023-07-31T03:03:55;18.60;99.90
19164;DHT22;9714;51.208;4.242;2023-07-31T03:06:22;18.60;99.90
19164;DHT22;9714;51.208;4.242;2023-07-31T03:08:51;18.50;99.90
19164;DHT22;9714;51.208;4.242;2023-07-31T03:11:18;18.60;99.90
19164;DHT22;9714;51.208;4.242;2023-07-31T03:13:48;18.70;99.90
19164;DHT22;9714;51.208;4.242;2023-07-31T03:16:17;18.70;99.90
19164;DHT22;9714;51.208;4.242;2023-07-31T03:18:44;18.80;99.90
19164;DHT22;9714;51.208;4.242;2023-07-31T03:21:12;18.70;99.90
19164;DHT22;9714;51.208;4.242;2023-07-31T03:23:39;18.70;99.90
19164;DHT22;9714;51.208;4.242;2023-07-31T03:26:08;18.60;99.90
19164;DHT22;9714;51.208;4.242;2023-07-31T03:28:35;18.70;99.90
19164;DHT22;9714;51.208;4.242;2023-07-31T03:31:03;18.70;99.90
19164;DHT22;9714;51.208;4.242;2023-07-31T03:33:33;18.70;99.90
19164;DHT22;9714;51.208;4.242;2023-07-31T03:36:00;18.60;99.90
19164;DHT22;9714;51.208;4.242;2023-07-31T03:38:28;18.50;99.90
19164;DHT22;9714;51.208;4.242;2023-07-31T03:40:55;18.60;99.90
19164;DHT22;9714;51.208;4.242;2023-07-31T03:43:26;18.60;99.90
19164;DHT22;9714;51.208;4.242;2023-07-31T03:45:53;18.60;99.90
19164;DHT22;9714;51.208;4.242;2023-07-31T03:48:20;18.60;99.90
19164;DHT22;9714;51.208;4.242;2023-07-31T03:50:48;18.40;99.90
19164;DHT22;9714;51.208;4.242;2023-07-31T03:53:16;18.50;99.90
19164;DHT22;9714;51.208;4.242;2023-07-31T03:55:43;18.40;99.90
19164;DHT22;9714;51.208;4.242;2023-07-31T03:58:10;18.30;99.90
19164;DHT22;9714;51.208;4.242;2023-07-31T04:00:40;18.20;99.90
19164;DHT22;9714;51.208;4.242;2023-07-31T04:03:08;18.10;99.90
19164;DHT22;9714;51.208;4.242;2023-07-31T04:05:38;18.00;99.90
19164;DHT22;9714;51.208;4.242;2023-07-31T04:08:06;18.00;99.90
19164;DHT22;9714;51.208;4.242;2023-07-31T04:10:33;18.10;99.90
19164;DHT22;9714;51.208;4.242;2023-07-31T04:13:00;17.90;99.90
19164;DHT22;9714;51.208;4.242;2023-07-31T04:15:27;17.80;99.90
19164;DHT22;9714;51.208;4.242;2023-07-31T04:17:58;17.90;99.90
19164;DHT22;9714;51.208;4.242;2023-07-31T04:20:25;17.90;99.90
19164;DHT22;9714;51.208;4.242;2023-07-31T04:22:52;18.00;99.90
19164;DHT22;9714;51.208;4.242;2023-07-31T04:25:23;18.00;99.90
19164;DHT22;9714;51.208;4.242;2023-07-31T04:27:50;17.90;99.90
19164;DHT22;9714;51.208;4.242;2023-07-31T04:30:17;17.90;99.90
19164;DHT22;9714;51.208;4.242;2023-07-31T04:32:44;17.80;99.90
19164;DHT22;9714;51.208;4.242;2023-07-31T04:35:15;17.90;99.90
19164;DHT22;9714;51.208;4.242;2023-07-31T04:37:42;17.80;99.90
19164;DHT22;9714;51.208;4.242;2023-07-31T04:40:11;17.90;99.90
19164;DHT22;9714;51.208;4.242;2023-07-31T04:42:38;17.90;99.90
19164;DHT22;9714;51.208;4.242;2023-07-31T04:45:05;17.90;99.90
19164;DHT22;9714;51.208;4.242;2023-07-31T04:47:35;17.80;99.90
19164;DHT22;9714;51.208;4.242;2023-07-31T04:50:03;17.80;99.90
19164;DHT22;9714;51.208;4.242;2023-07-31T04:52:32;17.70;99.90
19164;DHT22;9714;51.208;4.242;2023-07-31T04:55:00;17.70;99.90
19164;DHT22;9714;51.208;4.242;2023-07-31T04:57:29;17.80;99.90
19164;DHT22;9714;51.208;4.242;2023-07-31T04:59:56;17.90;99.90
19164;DHT22;9714;51.208;4.242;2023-07-31T05:02:24;17.90;99.90
19164;DHT22;9714;51.208;4.242;2023-07-31T05:04:51;18.00;99.90
19164;DHT22;9714;51.208;4.242;2023-07-31T05:07:21;17.90;99.90
19164;DHT22;9714;51.208;4.242;2023-07-31T05:09:55;17.70;99.90
19164;DHT22;9714;51.208;4.242;2023-07-31T05:12:22;17.70;99.90
19164;DHT22;9714;51.208;4.242;2023-07-31T05:14:55;17.70;99.90
19164;DHT22;9714;51.208;4.242;2023-07-31T05:17:22;17.70;99.90
19164;DHT22;9714;51.208;4.242;2023-07-31T05:19:50;17.80;99.90
19164;DHT22;9714;51.208;4.242;2023-07-31T05:22:18;17.80;99.90
19164;DHT22;9714;51.208;4.242;2023-07-31T05:24:48;17.80;99.90
19164;DHT22;9714;51.208;4.242;2023-07-31T05:27:17;17.80;99.90
19164;DHT22;9714;51.208;4.242;2023-07-31T05:29:45;17.70;99.90
19164;DHT22;9714;51.208;4.242;2023-07-31T05:32:12;17.70;99.90
19164;DHT22;9714;51.208;4.242;2023-07-31T05:34:39;17.70;99.90
19164;DHT22;9714;51.208;4.242;2023-07-31T05:37:07;17.80;99.90
19164;DHT22;9714;51.208;4.242;2023-07-31T05:39:35;17.90;99.90
19164;DHT22;9714;51.208;4.242;2023-07-31T05:42:04;17.90;99.90
19164;DHT22;9714;51.208;4.242;2023-07-31T05:44:32;17.90;99.90
19164;DHT22;9714;51.208;4.242;2023-07-31T05:47:00;17.90;99.90
19164;DHT22;9714;51.208;4.242;2023-07-31T05:49:27;17.90;99.90
19164;DHT22;9714;51.208;4.242;2023-07-31T05:51:54;17.90;99.90
19164;DHT22;9714;51.208;4.242;2023-07-31T05:54:22;18.00;99.90
19164;DHT22;9714;51.208;4.242;2023-07-31T05:56:51;18.00;99.90
19164;DHT22;9714;51.208;4.242;2023-07-31T05:59:18;18.10;99.90
19164;DHT22;9714;51.208;4.242;2023-07-31T06:01:47;18.10;99.90
19164;DHT22;9714;51.208;4.242;2023-07-31T06:04:14;18.20;99.90
19164;DHT22;9714;51.208;4.242;2023-07-31T06:06:41;18.00;99.90
19164;DHT22;9714;51.208;4.242;2023-07-31T06:09:09;18.20;99.90
19164;DHT22;9714;51.208;4.242;2023-07-31T06:11:36;18.20;99.90
19164;DHT22;9714;51.208;4.242;2023-07-31T06:14:03;18.20;99.90
19164;DHT22;9714;51.208;4.242;2023-07-31T06:16:30;18.20;99.90
19164;DHT22;9714;51.208;4.242;2023-07-31T06:18:59;18.10;99.90
19164;DHT22;9714;51.208;4.242;2023-07-31T06:21:26;18.20;99.90
19164;DHT22;9714;51.208;4.242;2023-07-31T06:23:53;18.30;99.90
19164;DHT22;9714;51.208;4.242;2023-07-31T06:26:20;18.30;99.90
19164;DHT22;9714;51.208;4.242;2023-07-31T06:28:48;18.30;99.90
19164;DHT22;9714;51.208;4.242;2023-07-31T06:31:15;18.20;99.90
19164;DHT22;9714;51.208;4.242;2023-07-31T06:33:46;18.30;99.90
19164;DHT22;9714;51.208;4.242;2023-07-31T06:36:16;18.40;99.90
19164;DHT22;9714;51.208;4.242;2023-07-31T06:38:44;18.50;99.90
19164;DHT22;9714;51.208;4.242;2023-07-31T06:41:11;18.60;99.90
19164;DHT22;9714;51.208;4.242;2023-07-31T06:43:39;18.60;99.90
19164;DHT22;9714;51.208;4.242;2023-07-31T06:46:07;18.60;99.90
19164;DHT22;9714;51.208;4.242;2023-07-31T06:48:35;18.40;99.90
19164;DHT22;9714;51.208;4.242;2023-07-31T06:51:03;18.40;99.90
19164;DHT22;9714;51.208;4.242;2023-07-31T06:53:31;18.40;99.90
19164;DHT22;9714;51.208;4.242;2023-07-31T06:55:59;18.50;99.90
19164;DHT22;9714;51.208;4.242;2023-07-31T06:58:26;18.80;99.90
19164;DHT22;9714;51.208;4.242;2023-07-31T07:00:53;18.80;99.90
19164;DHT22;9714;51.208;4.242;2023-07-31T07:03:20;18.80;99.90
19164;DHT22;9714;51.208;4.242;2023-07-31T07:05:48;18.90;99.90
19164;DHT22;9714;51.208;4.242;2023-07-31T07:08:16;18.70;99.90
19164;DHT22;9714;51.208;4.242;2023-07-31T07:10:45;18.60;99.90
19164;DHT22;9714;51.208;4.242;2023-07-31T07:13:15;18.70;99.90
19164;DHT22;9714;51.208;4.242;2023-07-31T07:15:52;18.70;99.90
19164;DHT22;9714;51.208;4.242;2023-07-31T07:18:20;18.70;99.90
19164;DHT22;9714;51.208;4.242;2023-07-31T07:20:50;18.70;99.90
19164;DHT22;9714;51.208;4.242;2023-07-31T07:23:19;18.60;99.90
19164;DHT22;9714;51.208;4.242;2023-07-31T07:25:49;18.60;99.90
19164;DHT22;9714;51.208;4.242;2023-07-31T07:28:20;18.70;99.90
19164;DHT22;9714;51.208;4.242;2023-07-31T07:30:51;18.50;99.90
19164;DHT22;9714;51.208;4.242;2023-07-31T07:33:25;18.60;99.90
19164;DHT22;9714;51.208;4.242;2023-07-31T07:35:52;18.70;99.90
19164;DHT22;9714;51.208;4.242;2023-07-31T07:38:20;18.70;99.90
19164;DHT22;9714;51.208;4.242;2023-07-31T07:40:48;18.70;99.90
19164;DHT22;9714;51.208;4.242;2023-07-31T07:43:20;18.70;99.90
19164;DHT22;9714;51.208;4.242;2023-07-31T07:45:47;18.90;99.90
19164;DHT22;9714;51.208;4.242;2023-07-31T07:48:21;18.90;99.90
19164;DHT22;9714;51.208;4.242;2023-07-31T07:50:50;18.90;99.90
19164;DHT22;9714;51.208;4.242;2023-07-31T07:53:18;19.00;99.90
19164;DHT22;9714;51.208;4.242;2023-07-31T07:55:45;19.20;99.90
19164;DHT22;9714;51.208;4.242;2023-07-31T07:58:14;19.40;99.90
19164;DHT22;9714;51.208;4.242;2023-07-31T08:00:48;19.50;99.90
19164;DHT22;9714;51.208;4.242;2023-07-31T08:03:16;20.00;99.90
19164;DHT22;9714;51.208;4.242;2023-07-31T08:05:45;20.10;99.90
19164;DHT22;9714;51.208;4.242;2023-07-31T08:08:14;20.20;99.90
19164;DHT22;9714;51.208;4.242;2023-07-31T08:10:42;19.80;99.90
19164;DHT22;9714;51.208;4.242;2023-07-31T08:13:11;19.70;99.90
19164;DHT22;9714;51.208;4.242;2023-07-31T08:15:42;19.70;99.90
19164;DHT22;9714;51.208;4.242;2023-07-31T08:18:11;19.90;99.90
19164;DHT22;9714;51.208;4.242;2023-07-31T08:20:40;20.00;99.90
19164;DHT22;9714;51.208;4.242;2023-07-31T08:23:07;20.10;99.90
19164;DHT22;9714;51.208;4.242;2023-07-31T08:25:36;20.10;99.90
19164;DHT22;9714;51.208;4.242;2023-07-31T08:28:07;20.10;99.90
19164;DHT22;9714;51.208;4.242;2023-07-31T08:30:36;20.10;99.90
19164;DHT22;9714;51.208;4.242;2023-07-31T08:33:05;19.90;99.90
19164;DHT22;9714;51.208;4.242;2023-07-31T08:35:33;19.90;99.90
19164;DHT22;9714;51.208;4.242;2023-07-31T08:38:01;19.90;99.90
19164;DHT22;9714;51.208;4.242;2023-07-31T08:40:28;19.90;99.90
19164;DHT22;9714;51.208;4.242;2023-07-31T08:42:56;20.10;99.90
19164;DHT22;9714;51.208;4.242;2023-07-31T08:45:28;20.40;99.90
19164;DHT22;9714;51.208;4.242;2023-07-31T08:47:56;20.50;99.90
19164;DHT22;9714;51.208;4.242;2023-07-31T08:50:25;20.70;99.90
19164;DHT22;9714;51.208;4.242;2023-07-31T08:52:53;20.70;99.90
19164;DHT22;9714;51.208;4.242;2023-07-31T08:55:20;20.90;99.90
19164;DHT22;9714;51.208;4.242;2023-07-31T08:57:51;21.10;99.90
19164;DHT22;9714;51.208;4.242;2023-07-31T09:00:20;21.50;99.90
19164;DHT22;9714;51.208;4.242;2023-07-31T09:02:54;21.70;99.90
19164;DHT22;9714;51.208;4.242;2023-07-31T09:05:26;21.60;99.90
19164;DHT22;9714;51.208;4.242;2023-07-31T09:07:54;21.40;99.90
19164;DHT22;9714;51.208;4.242;2023-07-31T09:10:22;21.70;99.90
19164;DHT22;9714;51.208;4.242;2023-07-31T09:12:52;21.90;99.90
19164;DHT22;9714;51.208;4.242;2023-07-31T09:15:19;22.00;99.90
19164;DHT22;9714;51.208;4.242;2023-07-31T09:17:47;21.90;99.90
19164;DHT22;9714;51.208;4.242;2023-07-31T09:20:17;21.60;99.90
19164;DHT22;9714;51.208;4.242;2023-07-31T09:22:47;21.50;99.90
19164;DHT22;9714;51.208;4.242;2023-07-31T09:25:18;21.70;99.90
19164;DHT22;9714;51.208;4.242;2023-07-31T09:27:50;21.70;99.90
19164;DHT22;9714;51.208;4.242;2023-07-31T09:30:18;21.60;99.90
19164;DHT22;9714;51.208;4.242;2023-07-31T09:32:47;21.60;99.90
19164;DHT22;9714;51.208;4.242;2023-07-31T09:35:22;21.60;99.90
19164;DHT22;9714;51.208;4.242;2023-07-31T09:37:55;21.50;99.90
19164;DHT22;9714;51.208;4.242;2023-07-31T09:40:27;21.60;99.90
19164;DHT22;9714;51.208;4.242;2023-07-31T09:42:56;21.60;99.90
19164;DHT22;9714;51.208;4.242;2023-07-31T09:45:24;21.60;99.90
19164;DHT22;9714;51.208;4.242;2023-07-31T09:47:55;21.50;99.90
19164;DHT22;9714;51.208;4.242;2023-07-31T09:50:24;21.40;99.90
19164;DHT22;9714;51.208;4.242;2023-07-31T09:52:53;21.30;99.90
19164;DHT22;9714;51.208;4.242;2023-07-31T09:55:21;21.20;99.90
19164;DHT22;9714;51.208;4.242;2023-07-31T09:57:49;21.10;99.90
19164;DHT22;9714;51.208;4.242;2023-07-31T10:00:18;21.20;99.90
19164;DHT22;9714;51.208;4.242;2023-07-31T10:02:49;21.20;99.90
19164;DHT22;9714;51.208;4.242;2023-07-31T10:05:19;21.30;99.90
19164;DHT22;9714;51.208;4.242;2023-07-31T10:07:55;21.30;99.90
19164;DHT22;9714;51.208;4.242;2023-07-31T10:10:27;21.30;99.90
19164;DHT22;9714;51.208;4.242;2023-07-31T10:12:56;21.40;99.90
19164;DHT22;9714;51.208;4.242;2023-07-31T10:15:24;21.60;99.90
19164;DHT22;9714;51.208;4.242;2023-07-31T10:17:54;21.50;99.90
19164;DHT22;9714;51.208;4.242;2023-07-31T10:20:23;21.30;99.90
19164;DHT22;9714;51.208;4.242;2023-07-31T10:22:51;21.30;99.90
19164;DHT22;9714;51.208;4.242;2023-07-31T10:25:22;21.30;99.90
19164;DHT22;9714;51.208;4.242;2023-07-31T10:27:50;21.20;99.90
19164;DHT22;9714;51.208;4.242;2023-07-31T10:30:24;21.30;99.90
19164;DHT22;9714;51.208;4.242;2023-07-31T10:32:53;21.40;99.90
19164;DHT22;9714;51.208;4.242;2023-07-31T10:35:20;21.30;99.90
19164;DHT22;9714;51.208;4.242;2023-07-31T10:37:48;21.10;99.90
19164;DHT22;9714;51.208;4.242;2023-07-31T10:40:17;21.10;99.90
19164;DHT22;9714;51.208;4.242;2023-07-31T10:42:48;21.00;99.90
19164;DHT22;9714;51.208;4.242;2023-07-31T10:45:24;21.10;99.90
19164;DHT22;9714;51.208;4.242;2023-07-31T10:47:58;21.00;99.90
19164;DHT22;9714;51.208;4.242;2023-07-31T10:50:29;21.50;99.90
19164;DHT22;9714;51.208;4.242;2023-07-31T10:53:00;21.90;99.90
19164;DHT22;9714;51.208;4.242;2023-07-31T10:55:30;21.80;99.90
19164;DHT22;9714;51.208;4.242;2023-07-31T10:58:04;21.60;99.90
19164;DHT22;9714;51.208;4.242;2023-07-31T11:00:32;21.70;99.90
19164;DHT22;9714;51.208;4.242;2023-07-31T11:03:02;21.60;99.90
19164;DHT22;9714;51.208;4.242;2023-07-31T11:05:44;21.70;99.90
19164;DHT22;9714;51.208;4.242;2023-07-31T11:08:17;21.70;99.90
19164;DHT22;9714;51.208;4.242;2023-07-31T11:10:45;21.50;99.90
19164;DHT22;9714;51.208;4.242;2023-07-31T11:13:14;21.40;99.90
19164;DHT22;9714;51.208;4.242;2023-07-31T11:15:48;21.00;99.90
19164;DHT22;9714;51.208;4.242;2023-07-31T11:18:15;20.80;99.90
19164;DHT22;9714;51.208;4.242;2023-07-31T11:20:47;20.80;99.90
19164;DHT22;9714;51.208;4.242;2023-07-31T11:23:16;20.90;99.90
19164;DHT22;9714;51.208;4.242;2023-07-31T11:25:47;21.00;99.90
19164;DHT22;9714;51.208;4.242;2023-07-31T11:28:18;21.00;99.90
19164;DHT22;9714;51.208;4.242;2023-07-31T11:30:46;21.10;99.90
19164;DHT22;9714;51.208;4.242;2023-07-31T11:33:14;21.10;99.90
19164;DHT22;9714;51.208;4.242;2023-07-31T11:35:44;21.20;99.90
19164;DHT22;9714;51.208;4.242;2023-07-31T11:38:11;21.20;99.90
19164;DHT22;9714;51.208;4.242;2023-07-31T11:40:43;21.20;99.90
19164;DHT22;9714;51.208;4.242;2023-07-31T11:43:11;21.40;99.90
19164;DHT22;9714;51.208;4.242;2023-07-31T11:45:45;21.40;99.90
19164;DHT22;9714;51.208;4.242;2023-07-31T11:48:19;21.30;99.90
19164;DHT22;9714;51.208;4.242;2023-07-31T11:50:48;21.60;99.90
19164;DHT22;9714;51.208;4.242;2023-07-31T11:53:20;21.80;99.90
19164;DHT22;9714;51.208;4.242;2023-07-31T11:55:48;22.00;99.90
19164;DHT22;9714;51.208;4.242;2023-07-31T11:58:16;22.20;99.90
19164;DHT22;9714;51.208;4.242;2023-07-31T12:00:46;22.10;99.90
19164;DHT22;9714;51.208;4.242;2023-07-31T12:03:14;22.00;99.90
19164;DHT22;9714;51.208;4.242;2023-07-31T12:05:41;21.80;99.90
19164;DHT22;9714;51.208;4.242;2023-07-31T12:08:09;21.40;99.90
19164;DHT22;9714;51.208;4.242;2023-07-31T12:10:37;21.50;99.90
19164;DHT22;9714;51.208;4.242;2023-07-31T12:13:09;21.40;99.90
19164;DHT22;9714;51.208;4.242;2023-07-31T12:15:42;21.10;99.90
19164;DHT22;9714;51.208;4.242;2023-07-31T12:18:12;21.00;99.90
19164;DHT22;9714;51.208;4.242;2023-07-31T12:20:41;21.10;99.90
19164;DHT22;9714;51.208;4.242;2023-07-31T12:23:17;21.50;99.90
19164;DHT22;9714;51.208;4.242;2023-07-31T12:25:45;21.60;99.90
19164;DHT22;9714;51.208;4.242;2023-07-31T12:28:13;21.70;99.90
19164;DHT22;9714;51.208;4.242;2023-07-31T12:30:41;21.80;99.90
19164;DHT22;9714;51.208;4.242;2023-07-31T12:33:15;21.70;99.90
19164;DHT22;9714;51.208;4.242;2023-07-31T12:35:46;22.00;99.90
19164;DHT22;9714;51.208;4.242;2023-07-31T12:38:16;21.90;99.90
19164;DHT22;9714;51.208;4.242;2023-07-31T12:40:44;21.60;99.90
19164;DHT22;9714;51.208;4.242;2023-07-31T12:43:20;21.60;99.90
19164;DHT22;9714;51.208;4.242;2023-07-31T12:45:53;21.50;99.90
19164;DHT22;9714;51.208;4.242;2023-07-31T12:48:23;21.20;99.90
19164;DHT22;9714;51.208;4.242;2023-07-31T12:54:12;20.90;99.90
19164;DHT22;9714;51.208;4.242;2023-07-31T12:56:44;21.00;99.90
19164;DHT22;9714;51.208;4.242;2023-07-31T13:02:34;21.10;99.90
19164;DHT22;9714;51.208;4.242;2023-07-31T13:05:04;21.10;99.90
19164;DHT22;9714;51.208;4.242;2023-07-31T13:07:37;21.10;99.90
19164;DHT22;9714;51.208;4.242;2023-07-31T13:10:06;21.00;99.90
19164;DHT22;9714;51.208;4.242;2023-07-31T13:12:38;21.00;99.90
19164;DHT22;9714;51.208;4.242;2023-07-31T13:15:07;21.10;99.90
19164;DHT22;9714;51.208;4.242;2023-07-31T13:17:34;21.10;99.90
19164;DHT22;9714;51.208;4.242;2023-07-31T13:20:05;21.10;99.90
19164;DHT22;9714;51.208;4.242;2023-07-31T13:22:35;21.10;99.90
19164;DHT22;9714;51.208;4.242;2023-07-31T13:25:02;20.90;99.90
19164;DHT22;9714;51.208;4.242;2023-07-31T13:27:29;20.90;99.90
19164;DHT22;9714;51.208;4.242;2023-07-31T13:29:56;20.70;99.90
19164;DHT22;9714;51.208;4.242;2023-07-31T13:32:24;20.60;99.90
19164;DHT22;9714;51.208;4.242;2023-07-31T13:34:52;20.50;99.90
19164;DHT22;9714;51.208;4.242;2023-07-31T13:37:21;20.60;99.90
19164;DHT22;9714;51.208;4.242;2023-07-31T13:39:48;20.50;99.90
19164;DHT22;9714;51.208;4.242;2023-07-31T13:42:17;20.40;99.90
19164;DHT22;9714;51.208;4.242;2023-07-31T13:44:44;20.50;99.90
19164;DHT22;9714;51.208;4.242;2023-07-31T13:47:11;20.30;99.90
19164;DHT22;9714;51.208;4.242;2023-07-31T13:49:38;20.20;99.90
19164;DHT22;9714;51.208;4.242;2023-07-31T13:52:06;20.10;99.90
19164;DHT22;9714;51.208;4.242;2023-07-31T13:54:36;20.00;99.90
19164;DHT22;9714;51.208;4.242;2023-07-31T13:57:05;19.80;99.90
19164;DHT22;9714;51.208;4.242;2023-07-31T13:59:32;19.70;99.90
19164;DHT22;9714;51.208;4.242;2023-07-31T14:02:02;19.50;99.90
19164;DHT22;9714;51.208;4.242;2023-07-31T14:04:36;19.50;99.90
19164;DHT22;9714;51.208;4.242;2023-07-31T14:07:03;19.40;99.90
19164;DHT22;9714;51.208;4.242;2023-07-31T14:09:32;19.20;99.90
19164;DHT22;9714;51.208;4.242;2023-07-31T14:12:09;19.20;99.90
19164;DHT22;9714;51.208;4.242;2023-07-31T14:14:36;19.30;99.90
19164;DHT22;9714;51.208;4.242;2023-07-31T14:17:04;19.20;99.90
19164;DHT22;9714;51.208;4.242;2023-07-31T14:19:31;19.20;99.90
19164;DHT22;9714;51.208;4.242;2023-07-31T14:22:00;19.20;99.90
19164;DHT22;9714;51.208;4.242;2023-07-31T14:24:30;19.20;99.90
19164;DHT22;9714;51.208;4.242;2023-07-31T14:26:57;19.20;99.90
19164;DHT22;9714;51.208;4.242;2023-07-31T14:29:26;19.20;99.90
19164;DHT22;9714;51.208;4.242;2023-07-31T14:32:15;19.20;99.90
19164;DHT22;9714;51.208;4.242;2023-07-31T14:34:46;19.20;99.90
19164;DHT22;9714;51.208;4.242;2023-07-31T14:37:15;19.40;99.90
19164;DHT22;9714;51.208;4.242;2023-07-31T14:39:43;19.40;99.90
19164;DHT22;9714;51.208;4.242;2023-07-31T14:42:11;19.20;99.90
19164;DHT22;9714;51.208;4.242;2023-07-31T14:44:39;19.10;99.90
19164;DHT22;9714;51.208;4.242;2023-07-31T14:47:07;19.20;99.90
19164;DHT22;9714;51.208;4.242;2023-07-31T14:49:34;19.20;99.90
19164;DHT22;9714;51.208;4.242;2023-07-31T14:52:02;19.20;99.90
19164;DHT22;9714;51.208;4.242;2023-07-31T14:54:33;19.30;99.90
19164;DHT22;9714;51.208;4.242;2023-07-31T14:57:02;19.30;99.90
19164;DHT22;9714;51.208;4.242;2023-07-31T14:59:34;19.40;99.90
19164;DHT22;9714;51.208;4.242;2023-07-31T15:02:05;19.30;99.90
19164;DHT22;9714;51.208;4.242;2023-07-31T15:04:33;19.50;99.90
19164;DHT22;9714;51.208;4.242;2023-07-31T15:07:00;19.50;99.90
19164;DHT22;9714;51.208;4.242;2023-07-31T15:09:30;19.30;99.90
19164;DHT22;9714;51.208;4.242;2023-07-31T15:12:00;19.30;99.90
19164;DHT22;9714;51.208;4.242;2023-07-31T15:14:28;19.40;99.90
19164;DHT22;9714;51.208;4.242;2023-07-31T15:16:58;19.40;99.90
19164;DHT22;9714;51.208;4.242;2023-07-31T15:19:32;19.40;99.90
19164;DHT22;9714;51.208;4.242;2023-07-31T15:22:06;19.20;99.90
19164;DHT22;9714;51.208;4.242;2023-07-31T15:24:33;19.30;99.90
19164;DHT22;9714;51.208;4.242;2023-07-31T15:27:05;19.20;99.90
19164;DHT22;9714;51.208;4.242;2023-07-31T15:29:34;19.20;99.90
19164;DHT22;9714;51.208;4.242;2023-07-31T15:32:06;19.20;99.90
19164;DHT22;9714;51.208;4.242;2023-07-31T15:34:37;19.20;99.90
19164;DHT22;9714;51.208;4.242;2023-07-31T15:37:05;19.20;99.90
19164;DHT22;9714;51.208;4.242;2023-07-31T15:39:33;19.10;99.90
19164;DHT22;9714;51.208;4.242;2023-07-31T15:42:07;19.00;99.90
19164;DHT22;9714;51.208;4.242;2023-07-31T15:44:35;19.10;99.90
19164;DHT22;9714;51.208;4.242;2023-07-31T15:47:04;19.10;99.90
19164;DHT22;9714;51.208;4.242;2023-07-31T15:49:31;19.20;99.90
19164;DHT22;9714;51.208;4.242;2023-07-31T15:52:00;19.10;99.90
19164;DHT22;9714;51.208;4.242;2023-07-31T15:54:33;19.10;99.90
19164;DHT22;9714;51.208;4.242;2023-07-31T15:57:00;19.10;99.90
19164;DHT22;9714;51.208;4.242;2023-07-31T15:59:28;19.10;99.90
19164;DHT22;9714;51.208;4.242;2023-07-31T16:01:55;19.10;99.90
19164;DHT22;9714;51.208;4.242;2023-07-31T16:04:28;19.10;99.90